Aviation Forecast PDF Print E-mail

 
met_logo

NATIONAL METEOROLOGICAL SERVICE OF BELIZE

Area Forecast for the Country of Belize


For the period from:

1200  23 JULY  2016

to

2400  23  JULY  2016

All Heights in the forecast are above sea level. PS= Positive, MS= Minus. All times are UTC.


A.

SPECIAL FEATURES of the METEOROLOGICAL SITUATION

 TROPICAL WAVE WILL CROSS THE COUNTRY LATER TODAY...

B.

HEIGHT (Ft)

WIND (True Degrees and Knots)

TEMPERATURE (°C)

Surface

09008

  

PS31-33

2,000

10015

PS23

5,000

10015

PS19

10,000

11020

PS10

C.

CLOUDS (Amount, Type, Ceiling and Top(optional))

 

 FEW CB BASES 1200FT TOPS 35000FT

 SCT CU BASES 2000FT TOPS 10000FT

 SCT SC BASES 4500FT


D.

SURFACE VISIBILITY:  25KM . 3-5KM IN TSRA / SHRA . 500M IN HILL FOG .


E.

WEATHER:  CLOUDY . SCATTERED SHOWERS AND THUNDERSTORMS . HILL FOG .


Remarks, Warnings, Turbulence

Barometric Changes

LOW CLOUDS COVERING HILLS; MOD TURB IN TCU/CB

DIURNAL

G.

OUTLOOK:

TO 1200 24 JULY -

PTLY CLDY . WDLY SCT SHRA/TSRA SOUTH .

H. 

TAF  MZBZ

231035Z 2312/2412 09008KT 9999 SCT022 SCT045 PROB40 TEMPO 2312/2316 5000 SHRA BKN015 TEMPO 2316/2322 4000 SHRA BKN014 PROB40 TEMPO 2316/2321 3000 TSRA SCT012CB BKN040 PROB30 TEMPO 2406/2412 4000 TSRA SCT012CB=

I.

Meteorological Office:

BELIZE

Issued at:

1140 23 JULY 2016

Forecaster:

RUDON / SMITH